sensor_id;sensor_type;location;lat;lon;timestamp;P1;durP1;ratioP1;P2;durP2;ratioP2
31782;SDS011;18351;47.560;9.708;2023-07-13T00:01:44;8.93;;;4.93;;
31782;SDS011;18351;47.560;9.708;2023-07-13T00:04:11;8.50;;;4.78;;
31782;SDS011;18351;47.560;9.708;2023-07-13T00:06:38;12.93;;;5.35;;
31782;SDS011;18351;47.560;9.708;2023-07-13T00:09:04;9.18;;;5.50;;
31782;SDS011;18351;47.560;9.708;2023-07-13T00:11:30;11.93;;;5.63;;
31782;SDS011;18351;47.560;9.708;2023-07-13T00:13:55;6.32;;;5.10;;
31782;SDS011;18351;47.560;9.708;2023-07-13T00:16:21;9.80;;;4.93;;
31782;SDS011;18351;47.560;9.708;2023-07-13T00:18:46;10.57;;;5.45;;
31782;SDS011;18351;47.560;9.708;2023-07-13T00:21:12;6.22;;;4.32;;
31782;SDS011;18351;47.560;9.708;2023-07-13T00:23:38;8.35;;;4.70;;
31782;SDS011;18351;47.560;9.708;2023-07-13T00:26:06;6.50;;;4.32;;
31782;SDS011;18351;47.560;9.708;2023-07-13T00:28:34;8.70;;;4.43;;
31782;SDS011;18351;47.560;9.708;2023-07-13T00:31:00;5.22;;;4.57;;
31782;SDS011;18351;47.560;9.708;2023-07-13T00:33:29;10.30;;;5.38;;
31782;SDS011;18351;47.560;9.708;2023-07-13T00:35:55;6.13;;;4.20;;
31782;SDS011;18351;47.560;9.708;2023-07-13T00:38:21;5.25;;;4.20;;
31782;SDS011;18351;47.560;9.708;2023-07-13T00:40:48;7.90;;;5.40;;
31782;SDS011;18351;47.560;9.708;2023-07-13T00:43:15;6.65;;;4.20;;
31782;SDS011;18351;47.560;9.708;2023-07-13T00:48:09;9.75;;;4.25;;
31782;SDS011;18351;47.560;9.708;2023-07-13T00:50:36;6.80;;;4.20;;
31782;SDS011;18351;47.560;9.708;2023-07-13T00:53:03;6.13;;;4.00;;
31782;SDS011;18351;47.560;9.708;2023-07-13T00:55:29;5.80;;;4.18;;
31782;SDS011;18351;47.560;9.708;2023-07-13T00:57:55;6.88;;;4.25;;
31782;SDS011;18351;47.560;9.708;2023-07-13T01:00:21;8.30;;;4.78;;
31782;SDS011;18351;47.560;9.708;2023-07-13T01:02:47;6.43;;;4.40;;
31782;SDS011;18351;47.560;9.708;2023-07-13T01:05:15;5.10;;;4.43;;
31782;SDS011;18351;47.560;9.708;2023-07-13T01:07:43;5.78;;;4.43;;
31782;SDS011;18351;47.560;9.708;2023-07-13T01:10:10;9.05;;;5.15;;
31782;SDS011;18351;47.560;9.708;2023-07-13T01:12:37;6.70;;;4.57;;
31782;SDS011;18351;47.560;9.708;2023-07-13T01:15:03;5.50;;;4.68;;
31782;SDS011;18351;47.560;9.708;2023-07-13T01:17:29;6.35;;;4.15;;
31782;SDS011;18351;47.560;9.708;2023-07-13T01:19:58;5.50;;;4.10;;
31782;SDS011;18351;47.560;9.708;2023-07-13T01:22:25;5.97;;;4.65;;
31782;SDS011;18351;47.560;9.708;2023-07-13T01:24:52;13.85;;;4.90;;
31782;SDS011;18351;47.560;9.708;2023-07-13T01:27:23;8.90;;;5.07;;
31782;SDS011;18351;47.560;9.708;2023-07-13T01:29:51;7.40;;;4.45;;
31782;SDS011;18351;47.560;9.708;2023-07-13T01:32:22;8.60;;;4.93;;
31782;SDS011;18351;47.560;9.708;2023-07-13T01:34:50;7.47;;;4.68;;
31782;SDS011;18351;47.560;9.708;2023-07-13T01:37:19;7.10;;;4.80;;
31782;SDS011;18351;47.560;9.708;2023-07-13T01:39:45;8.88;;;4.30;;
31782;SDS011;18351;47.560;9.708;2023-07-13T01:42:10;7.85;;;4.18;;
31782;SDS011;18351;47.560;9.708;2023-07-13T01:44:36;6.30;;;4.30;;
31782;SDS011;18351;47.560;9.708;2023-07-13T01:47:02;5.85;;;4.35;;
31782;SDS011;18351;47.560;9.708;2023-07-13T01:49:28;8.88;;;4.05;;
31782;SDS011;18351;47.560;9.708;2023-07-13T01:51:53;13.02;;;4.25;;
31782;SDS011;18351;47.560;9.708;2023-07-13T01:54:19;9.30;;;4.50;;
31782;SDS011;18351;47.560;9.708;2023-07-13T01:56:45;7.82;;;4.32;;
31782;SDS011;18351;47.560;9.708;2023-07-13T01:59:10;8.60;;;4.78;;
31782;SDS011;18351;47.560;9.708;2023-07-13T02:01:36;6.55;;;4.35;;
31782;SDS011;18351;47.560;9.708;2023-07-13T02:04:02;7.32;;;4.63;;
31782;SDS011;18351;47.560;9.708;2023-07-13T02:06:27;10.65;;;5.00;;
31782;SDS011;18351;47.560;9.708;2023-07-13T02:08:53;11.10;;;4.45;;
31782;SDS011;18351;47.560;9.708;2023-07-13T02:11:19;5.20;;;4.05;;
31782;SDS011;18351;47.560;9.708;2023-07-13T02:13:45;9.20;;;4.13;;
31782;SDS011;18351;47.560;9.708;2023-07-13T02:16:10;4.88;;;4.15;;
31782;SDS011;18351;47.560;9.708;2023-07-13T02:18:36;4.60;;;3.80;;
31782;SDS011;18351;47.560;9.708;2023-07-13T02:21:02;7.40;;;4.35;;
31782;SDS011;18351;47.560;9.708;2023-07-13T02:23:28;7.80;;;4.18;;
31782;SDS011;18351;47.560;9.708;2023-07-13T02:25:57;8.95;;;3.83;;
31782;SDS011;18351;47.560;9.708;2023-07-13T02:28:24;5.63;;;3.90;;
31782;SDS011;18351;47.560;9.708;2023-07-13T02:30:50;7.85;;;3.65;;
31782;SDS011;18351;47.560;9.708;2023-07-13T02:33:15;7.28;;;4.25;;
31782;SDS011;18351;47.560;9.708;2023-07-13T02:35:41;4.68;;;3.95;;
31782;SDS011;18351;47.560;9.708;2023-07-13T02:38:07;4.45;;;3.92;;
31782;SDS011;18351;47.560;9.708;2023-07-13T02:40:33;6.00;;;3.95;;
31782;SDS011;18351;47.560;9.708;2023-07-13T02:43:00;9.45;;;3.83;;
31782;SDS011;18351;47.560;9.708;2023-07-13T02:45:26;8.43;;;3.42;;
31782;SDS011;18351;47.560;9.708;2023-07-13T02:47:52;5.97;;;3.92;;
31782;SDS011;18351;47.560;9.708;2023-07-13T02:50:17;7.75;;;3.80;;
31782;SDS011;18351;47.560;9.708;2023-07-13T02:52:43;6.35;;;4.15;;
31782;SDS011;18351;47.560;9.708;2023-07-13T02:55:09;5.07;;;3.67;;
31782;SDS011;18351;47.560;9.708;2023-07-13T02:57:35;6.53;;;4.25;;
31782;SDS011;18351;47.560;9.708;2023-07-13T03:00:00;6.40;;;3.85;;
31782;SDS011;18351;47.560;9.708;2023-07-13T03:02:30;6.93;;;3.90;;
31782;SDS011;18351;47.560;9.708;2023-07-13T03:04:57;7.55;;;4.43;;
31782;SDS011;18351;47.560;9.708;2023-07-13T03:07:23;6.18;;;4.55;;
31782;SDS011;18351;47.560;9.708;2023-07-13T03:09:53;6.85;;;4.28;;
31782;SDS011;18351;47.560;9.708;2023-07-13T03:12:23;6.20;;;4.13;;
31782;SDS011;18351;47.560;9.708;2023-07-13T03:14:49;7.43;;;4.10;;
31782;SDS011;18351;47.560;9.708;2023-07-13T03:17:14;8.95;;;4.40;;
31782;SDS011;18351;47.560;9.708;2023-07-13T03:19:40;5.03;;;4.10;;
31782;SDS011;18351;47.560;9.708;2023-07-13T03:22:05;5.65;;;4.43;;
31782;SDS011;18351;47.560;9.708;2023-07-13T03:24:32;6.30;;;3.75;;
31782;SDS011;18351;47.560;9.708;2023-07-13T03:27:00;6.43;;;3.80;;
31782;SDS011;18351;47.560;9.708;2023-07-13T03:29:26;4.70;;;4.10;;
31782;SDS011;18351;47.560;9.708;2023-07-13T03:31:52;5.05;;;3.80;;
31782;SDS011;18351;47.560;9.708;2023-07-13T03:34:18;4.50;;;3.67;;
31782;SDS011;18351;47.560;9.708;2023-07-13T03:36:43;6.10;;;3.85;;
31782;SDS011;18351;47.560;9.708;2023-07-13T03:39:09;4.68;;;4.10;;
31782;SDS011;18351;47.560;9.708;2023-07-13T03:41:35;7.45;;;3.88;;
31782;SDS011;18351;47.560;9.708;2023-07-13T03:44:00;6.28;;;4.25;;
31782;SDS011;18351;47.560;9.708;2023-07-13T03:46:26;5.88;;;3.83;;
31782;SDS011;18351;47.560;9.708;2023-07-13T03:48:52;4.90;;;4.03;;
31782;SDS011;18351;47.560;9.708;2023-07-13T03:51:17;4.90;;;3.78;;
31782;SDS011;18351;47.560;9.708;2023-07-13T03:53:44;5.03;;;3.45;;
31782;SDS011;18351;47.560;9.708;2023-07-13T03:56:11;5.30;;;3.53;;
31782;SDS011;18351;47.560;9.708;2023-07-13T03:58:39;4.40;;;3.38;;
31782;SDS011;18351;47.560;9.708;2023-07-13T04:01:07;5.65;;;3.65;;
31782;SDS011;18351;47.560;9.708;2023-07-13T04:03:34;6.93;;;3.85;;
31782;SDS011;18351;47.560;9.708;2023-07-13T04:06:02;4.32;;;3.50;;
31782;SDS011;18351;47.560;9.708;2023-07-13T04:08:29;6.28;;;3.95;;
31782;SDS011;18351;47.560;9.708;2023-07-13T04:10:57;8.48;;;3.53;;
31782;SDS011;18351;47.560;9.708;2023-07-13T04:13:24;8.57;;;4.35;;
31782;SDS011;18351;47.560;9.708;2023-07-13T04:15:50;8.93;;;4.50;;
31782;SDS011;18351;47.560;9.708;2023-07-13T04:18:16;7.22;;;4.05;;
31782;SDS011;18351;47.560;9.708;2023-07-13T04:20:42;5.82;;;3.88;;
31782;SDS011;18351;47.560;9.708;2023-07-13T04:23:08;7.65;;;4.13;;
31782;SDS011;18351;47.560;9.708;2023-07-13T04:25:33;5.88;;;4.20;;
31782;SDS011;18351;47.560;9.708;2023-07-13T04:27:59;5.13;;;3.42;;
31782;SDS011;18351;47.560;9.708;2023-07-13T04:30:25;7.43;;;3.70;;
31782;SDS011;18351;47.560;9.708;2023-07-13T04:32:51;4.95;;;3.83;;
31782;SDS011;18351;47.560;9.708;2023-07-13T04:35:20;4.10;;;3.47;;
31782;SDS011;18351;47.560;9.708;2023-07-13T04:37:47;5.20;;;3.65;;
31782;SDS011;18351;47.560;9.708;2023-07-13T04:40:15;5.68;;;3.75;;
31782;SDS011;18351;47.560;9.708;2023-07-13T04:42:46;5.47;;;3.80;;
31782;SDS011;18351;47.560;9.708;2023-07-13T04:45:13;5.40;;;3.72;;
31782;SDS011;18351;47.560;9.708;2023-07-13T04:47:39;5.70;;;4.65;;
31782;SDS011;18351;47.560;9.708;2023-07-13T04:50:06;5.65;;;3.85;;
31782;SDS011;18351;47.560;9.708;2023-07-13T04:52:32;8.15;;;3.75;;
31782;SDS011;18351;47.560;9.708;2023-07-13T04:54:58;5.15;;;3.38;;
31782;SDS011;18351;47.560;9.708;2023-07-13T04:57:24;5.00;;;3.40;;
31782;SDS011;18351;47.560;9.708;2023-07-13T04:59:50;4.60;;;3.50;;
31782;SDS011;18351;47.560;9.708;2023-07-13T05:02:16;6.43;;;3.63;;
31782;SDS011;18351;47.560;9.708;2023-07-13T05:04:42;5.60;;;3.55;;
31782;SDS011;18351;47.560;9.708;2023-07-13T05:07:07;4.20;;;3.70;;
31782;SDS011;18351;47.560;9.708;2023-07-13T05:09:33;5.85;;;3.70;;
31782;SDS011;18351;47.560;9.708;2023-07-13T05:11:58;4.35;;;3.28;;
31782;SDS011;18351;47.560;9.708;2023-07-13T05:14:24;5.03;;;3.67;;
31782;SDS011;18351;47.560;9.708;2023-07-13T05:16:49;5.78;;;4.15;;
31782;SDS011;18351;47.560;9.708;2023-07-13T05:19:15;5.32;;;3.22;;
31782;SDS011;18351;47.560;9.708;2023-07-13T05:21:40;5.82;;;3.75;;
31782;SDS011;18351;47.560;9.708;2023-07-13T05:24:06;4.97;;;3.80;;
31782;SDS011;18351;47.560;9.708;2023-07-13T05:26:32;5.78;;;3.42;;
31782;SDS011;18351;47.560;9.708;2023-07-13T05:28:57;7.85;;;4.13;;
31782;SDS011;18351;47.560;9.708;2023-07-13T05:31:23;13.55;;;3.90;;
31782;SDS011;18351;47.560;9.708;2023-07-13T05:33:49;6.90;;;4.05;;
31782;SDS011;18351;47.560;9.708;2023-07-13T05:36:14;5.25;;;3.60;;
31782;SDS011;18351;47.560;9.708;2023-07-13T05:38:40;4.68;;;3.60;;
31782;SDS011;18351;47.560;9.708;2023-07-13T05:41:05;5.28;;;4.47;;
31782;SDS011;18351;47.560;9.708;2023-07-13T05:43:31;8.60;;;4.88;;
31782;SDS011;18351;47.560;9.708;2023-07-13T05:45:57;6.18;;;4.18;;
31782;SDS011;18351;47.560;9.708;2023-07-13T05:48:23;5.63;;;4.70;;
31782;SDS011;18351;47.560;9.708;2023-07-13T05:50:48;5.18;;;4.38;;
31782;SDS011;18351;47.560;9.708;2023-07-13T05:53:14;5.97;;;4.80;;
31782;SDS011;18351;47.560;9.708;2023-07-13T05:55:41;10.30;;;5.38;;
31782;SDS011;18351;47.560;9.708;2023-07-13T05:58:15;7.10;;;4.53;;
31782;SDS011;18351;47.560;9.708;2023-07-13T06:00:42;5.90;;;4.93;;
31782;SDS011;18351;47.560;9.708;2023-07-13T06:03:07;5.30;;;3.92;;
31782;SDS011;18351;47.560;9.708;2023-07-13T06:05:34;12.20;;;4.70;;
31782;SDS011;18351;47.560;9.708;2023-07-13T06:08:01;7.30;;;3.88;;
31782;SDS011;18351;47.560;9.708;2023-07-13T06:10:27;5.45;;;3.63;;
31782;SDS011;18351;47.560;9.708;2023-07-13T06:12:53;5.45;;;3.60;;
31782;SDS011;18351;47.560;9.708;2023-07-13T06:15:18;6.45;;;4.35;;
31782;SDS011;18351;47.560;9.708;2023-07-13T06:17:44;3.78;;;3.30;;
31782;SDS011;18351;47.560;9.708;2023-07-13T06:20:10;4.18;;;3.55;;
31782;SDS011;18351;47.560;9.708;2023-07-13T06:22:35;5.13;;;3.45;;
31782;SDS011;18351;47.560;9.708;2023-07-13T06:25:01;6.35;;;3.00;;
31782;SDS011;18351;47.560;9.708;2023-07-13T06:27:27;4.68;;;3.55;;
31782;SDS011;18351;47.560;9.708;2023-07-13T06:29:53;6.88;;;3.65;;
31782;SDS011;18351;47.560;9.708;2023-07-13T06:32:18;4.25;;;3.22;;
31782;SDS011;18351;47.560;9.708;2023-07-13T06:34:44;7.60;;;3.70;;
31782;SDS011;18351;47.560;9.708;2023-07-13T06:37:10;5.43;;;3.72;;
31782;SDS011;18351;47.560;9.708;2023-07-13T06:39:35;4.50;;;3.58;;
31782;SDS011;18351;47.560;9.708;2023-07-13T06:42:01;6.88;;;3.80;;
31782;SDS011;18351;47.560;9.708;2023-07-13T06:44:27;7.18;;;3.55;;
31782;SDS011;18351;47.560;9.708;2023-07-13T06:46:52;7.13;;;3.53;;
31782;SDS011;18351;47.560;9.708;2023-07-13T06:49:18;5.28;;;3.20;;
31782;SDS011;18351;47.560;9.708;2023-07-13T06:51:44;5.80;;;3.67;;
31782;SDS011;18351;47.560;9.708;2023-07-13T06:54:09;7.28;;;4.00;;
31782;SDS011;18351;47.560;9.708;2023-07-13T06:56:35;8.70;;;3.85;;
31782;SDS011;18351;47.560;9.708;2023-07-13T06:59:00;8.80;;;4.20;;
31782;SDS011;18351;47.560;9.708;2023-07-13T07:01:26;5.85;;;3.80;;
31782;SDS011;18351;47.560;9.708;2023-07-13T07:03:51;8.45;;;4.18;;
31782;SDS011;18351;47.560;9.708;2023-07-13T07:06:18;7.40;;;3.90;;
31782;SDS011;18351;47.560;9.708;2023-07-13T07:08:46;8.85;;;4.43;;
31782;SDS011;18351;47.560;9.708;2023-07-13T07:11:12;10.32;;;4.50;;
31782;SDS011;18351;47.560;9.708;2023-07-13T07:13:39;5.47;;;3.83;;
31782;SDS011;18351;47.560;9.708;2023-07-13T07:16:05;5.72;;;3.95;;
31782;SDS011;18351;47.560;9.708;2023-07-13T07:18:31;6.03;;;3.95;;
31782;SDS011;18351;47.560;9.708;2023-07-13T07:20:57;6.38;;;3.92;;
31782;SDS011;18351;47.560;9.708;2023-07-13T07:23:22;10.63;;;4.80;;
31782;SDS011;18351;47.560;9.708;2023-07-13T07:25:48;7.03;;;4.13;;
31782;SDS011;18351;47.560;9.708;2023-07-13T07:28:14;6.10;;;4.53;;
31782;SDS011;18351;47.560;9.708;2023-07-13T07:30:43;9.38;;;4.25;;
31782;SDS011;18351;47.560;9.708;2023-07-13T07:33:09;9.25;;;4.22;;
31782;SDS011;18351;47.560;9.708;2023-07-13T07:35:35;4.07;;;3.50;;
31782;SDS011;18351;47.560;9.708;2023-07-13T07:38:00;7.28;;;4.07;;
31782;SDS011;18351;47.560;9.708;2023-07-13T07:40:26;5.93;;;4.22;;
31782;SDS011;18351;47.560;9.708;2023-07-13T07:42:52;6.50;;;4.22;;
31782;SDS011;18351;47.560;9.708;2023-07-13T07:45:18;5.20;;;3.70;;
31782;SDS011;18351;47.560;9.708;2023-07-13T07:47:44;9.05;;;4.22;;
31782;SDS011;18351;47.560;9.708;2023-07-13T07:50:10;8.40;;;3.88;;
31782;SDS011;18351;47.560;9.708;2023-07-13T07:52:35;4.43;;;3.55;;
31782;SDS011;18351;47.560;9.708;2023-07-13T07:55:01;4.57;;;3.28;;
31782;SDS011;18351;47.560;9.708;2023-07-13T07:57:27;8.68;;;3.08;;
31782;SDS011;18351;47.560;9.708;2023-07-13T07:59:52;5.97;;;3.45;;
31782;SDS011;18351;47.560;9.708;2023-07-13T08:02:18;11.60;;;3.83;;
31782;SDS011;18351;47.560;9.708;2023-07-13T08:04:43;6.75;;;3.90;;
31782;SDS011;18351;47.560;9.708;2023-07-13T08:07:09;8.07;;;3.75;;
31782;SDS011;18351;47.560;9.708;2023-07-13T08:09:34;6.35;;;3.88;;
31782;SDS011;18351;47.560;9.708;2023-07-13T08:12:00;11.85;;;4.53;;
31782;SDS011;18351;47.560;9.708;2023-07-13T08:14:26;6.18;;;4.07;;
31782;SDS011;18351;47.560;9.708;2023-07-13T08:16:51;6.50;;;3.95;;
31782;SDS011;18351;47.560;9.708;2023-07-13T08:19:17;7.55;;;3.80;;
31782;SDS011;18351;47.560;9.708;2023-07-13T08:21:42;6.47;;;3.55;;
31782;SDS011;18351;47.560;9.708;2023-07-13T08:24:08;5.10;;;3.40;;
31782;SDS011;18351;47.560;9.708;2023-07-13T08:26:34;10.13;;;4.90;;
31782;SDS011;18351;47.560;9.708;2023-07-13T08:29:00;12.02;;;5.28;;
31782;SDS011;18351;47.560;9.708;2023-07-13T08:31:25;8.82;;;4.40;;
31782;SDS011;18351;47.560;9.708;2023-07-13T08:33:51;7.10;;;3.92;;
31782;SDS011;18351;47.560;9.708;2023-07-13T08:36:16;8.05;;;4.95;;
31782;SDS011;18351;47.560;9.708;2023-07-13T08:38:42;8.65;;;4.45;;
31782;SDS011;18351;47.560;9.708;2023-07-13T08:41:15;6.57;;;4.18;;
31782;SDS011;18351;47.560;9.708;2023-07-13T08:43:46;9.18;;;4.18;;
31782;SDS011;18351;47.560;9.708;2023-07-13T08:46:16;6.13;;;3.92;;
31782;SDS011;18351;47.560;9.708;2023-07-13T08:48:56;6.05;;;3.95;;
31782;SDS011;18351;47.560;9.708;2023-07-13T08:51:38;8.13;;;4.38;;
31782;SDS011;18351;47.560;9.708;2023-07-13T08:54:12;6.00;;;4.47;;
31782;SDS011;18351;47.560;9.708;2023-07-13T08:56:55;6.95;;;4.10;;
31782;SDS011;18351;47.560;9.708;2023-07-13T08:59:27;6.72;;;4.15;;
31782;SDS011;18351;47.560;9.708;2023-07-13T09:01:58;5.50;;;3.78;;
31782;SDS011;18351;47.560;9.708;2023-07-13T09:04:37;4.70;;;3.72;;
31782;SDS011;18351;47.560;9.708;2023-07-13T09:09:50;5.50;;;3.85;;
31782;SDS011;18351;47.560;9.708;2023-07-13T09:15:39;5.82;;;3.40;;
31782;SDS011;18351;47.560;9.708;2023-07-13T09:20:34;7.10;;;3.30;;
31782;SDS011;18351;47.560;9.708;2023-07-13T09:23:15;5.80;;;3.65;;
31782;SDS011;18351;47.560;9.708;2023-07-13T09:25:43;11.80;;;4.00;;
31782;SDS011;18351;47.560;9.708;2023-07-13T09:28:19;6.10;;;3.08;;
31782;SDS011;18351;47.560;9.708;2023-07-13T09:31:01;6.75;;;3.25;;
31782;SDS011;18351;47.560;9.708;2023-07-13T09:33:47;6.55;;;3.10;;
31782;SDS011;18351;47.560;9.708;2023-07-13T09:36:32;4.55;;;3.22;;
31782;SDS011;18351;47.560;9.708;2023-07-13T09:39:03;4.07;;;3.15;;
31782;SDS011;18351;47.560;9.708;2023-07-13T09:44:29;5.07;;;2.95;;
31782;SDS011;18351;47.560;9.708;2023-07-13T09:47:42;6.97;;;2.65;;
31782;SDS011;18351;47.560;9.708;2023-07-13T09:50:09;9.35;;;3.97;;
31782;SDS011;18351;47.560;9.708;2023-07-13T09:57:52;4.53;;;2.53;;
31782;SDS011;18351;47.560;9.708;2023-07-13T10:00:22;6.78;;;2.70;;
31782;SDS011;18351;47.560;9.708;2023-07-13T10:03:09;5.72;;;3.15;;
31782;SDS011;18351;47.560;9.708;2023-07-13T10:05:45;4.10;;;2.70;;
31782;SDS011;18351;47.560;9.708;2023-07-13T10:08:28;3.40;;;3.08;;
31782;SDS011;18351;47.560;9.708;2023-07-13T10:11:09;5.30;;;3.40;;
31782;SDS011;18351;47.560;9.708;2023-07-13T10:13:39;6.43;;;3.92;;
31782;SDS011;18351;47.560;9.708;2023-07-13T10:16:07;6.70;;;4.45;;
31782;SDS011;18351;47.560;9.708;2023-07-13T10:18:47;10.93;;;3.70;;
31782;SDS011;18351;47.560;9.708;2023-07-13T10:21:17;9.10;;;3.10;;
31782;SDS011;18351;47.560;9.708;2023-07-13T10:23:50;7.47;;;3.25;;
31782;SDS011;18351;47.560;9.708;2023-07-13T10:26:21;6.10;;;3.17;;
31782;SDS011;18351;47.560;9.708;2023-07-13T10:28:56;4.63;;;3.10;;
31782;SDS011;18351;47.560;9.708;2023-07-13T10:31:24;7.38;;;3.35;;
31782;SDS011;18351;47.560;9.708;2023-07-13T10:33:50;3.67;;;2.75;;
31782;SDS011;18351;47.560;9.708;2023-07-13T10:38:53;5.90;;;2.85;;
31782;SDS011;18351;47.560;9.708;2023-07-13T10:41:21;4.28;;;2.88;;
31782;SDS011;18351;47.560;9.708;2023-07-13T10:43:51;5.60;;;2.42;;
31782;SDS011;18351;47.560;9.708;2023-07-13T10:46:21;4.10;;;2.45;;
31782;SDS011;18351;47.560;9.708;2023-07-13T10:48:53;5.07;;;2.85;;
31782;SDS011;18351;47.560;9.708;2023-07-13T10:51:27;3.53;;;2.50;;
31782;SDS011;18351;47.560;9.708;2023-07-13T10:54:11;5.72;;;2.58;;
31782;SDS011;18351;47.560;9.708;2023-07-13T10:56:45;7.10;;;2.47;;
31782;SDS011;18351;47.560;9.708;2023-07-13T10:59:13;3.50;;;2.85;;
31782;SDS011;18351;47.560;9.708;2023-07-13T11:01:58;5.80;;;3.15;;
31782;SDS011;18351;47.560;9.708;2023-07-13T11:04:28;3.72;;;3.00;;
31782;SDS011;18351;47.560;9.708;2023-07-13T11:07:11;4.28;;;3.00;;
31782;SDS011;18351;47.560;9.708;2023-07-13T11:09:55;5.43;;;3.38;;
31782;SDS011;18351;47.560;9.708;2023-07-13T11:22:42;6.80;;;3.10;;
31782;SDS011;18351;47.560;9.708;2023-07-13T11:25:29;4.68;;;3.20;;
31782;SDS011;18351;47.560;9.708;2023-07-13T11:35:36;6.05;;;3.92;;
31782;SDS011;18351;47.560;9.708;2023-07-13T11:38:18;5.15;;;3.47;;
31782;SDS011;18351;47.560;9.708;2023-07-13T11:41:05;5.82;;;3.30;;
31782;SDS011;18351;47.560;9.708;2023-07-13T11:43:54;6.20;;;3.55;;
31782;SDS011;18351;47.560;9.708;2023-07-13T11:46:27;5.13;;;4.05;;
31782;SDS011;18351;47.560;9.708;2023-07-13T11:48:53;7.47;;;3.33;;
31782;SDS011;18351;47.560;9.708;2023-07-13T11:51:32;5.32;;;3.65;;
31782;SDS011;18351;47.560;9.708;2023-07-13T11:54:06;6.20;;;4.05;;
31782;SDS011;18351;47.560;9.708;2023-07-13T11:56:40;8.20;;;4.32;;
31782;SDS011;18351;47.560;9.708;2023-07-13T11:59:07;5.85;;;3.63;;
31782;SDS011;18351;47.560;9.708;2023-07-13T12:01:36;7.15;;;2.85;;
31782;SDS011;18351;47.560;9.708;2023-07-13T12:04:11;5.75;;;2.80;;
31782;SDS011;18351;47.560;9.708;2023-07-13T12:06:46;3.97;;;3.58;;
31782;SDS011;18351;47.560;9.708;2023-07-13T12:09:17;6.72;;;3.42;;
31782;SDS011;18351;47.560;9.708;2023-07-13T12:11:50;6.00;;;3.30;;
31782;SDS011;18351;47.560;9.708;2023-07-13T12:14:16;5.72;;;3.92;;
31782;SDS011;18351;47.560;9.708;2023-07-13T12:16:44;7.07;;;3.40;;
31782;SDS011;18351;47.560;9.708;2023-07-13T12:19:16;5.35;;;3.10;;
31782;SDS011;18351;47.560;9.708;2023-07-13T12:21:45;8.52;;;3.45;;
31782;SDS011;18351;47.560;9.708;2023-07-13T12:24:13;7.05;;;3.40;;
31782;SDS011;18351;47.560;9.708;2023-07-13T12:26:43;6.18;;;3.60;;
31782;SDS011;18351;47.560;9.708;2023-07-13T12:29:15;8.65;;;4.13;;
31782;SDS011;18351;47.560;9.708;2023-07-13T12:31:43;5.32;;;4.05;;
31782;SDS011;18351;47.560;9.708;2023-07-13T12:34:13;8.93;;;4.18;;
31782;SDS011;18351;47.560;9.708;2023-07-13T12:36:58;7.28;;;4.03;;
31782;SDS011;18351;47.560;9.708;2023-07-13T12:39:43;8.85;;;4.35;;
31782;SDS011;18351;47.560;9.708;2023-07-13T12:44:46;4.15;;;3.45;;
31782;SDS011;18351;47.560;9.708;2023-07-13T12:47:12;8.15;;;4.70;;
31782;SDS011;18351;47.560;9.708;2023-07-13T12:49:42;6.53;;;3.72;;
31782;SDS011;18351;47.560;9.708;2023-07-13T12:52:20;5.75;;;4.00;;
31782;SDS011;18351;47.560;9.708;2023-07-13T12:54:54;6.25;;;4.45;;
31782;SDS011;18351;47.560;9.708;2023-07-13T12:57:24;6.28;;;4.18;;
31782;SDS011;18351;47.560;9.708;2023-07-13T12:59:54;6.88;;;4.18;;
31782;SDS011;18351;47.560;9.708;2023-07-13T13:02:23;5.60;;;4.10;;
31782;SDS011;18351;47.560;9.708;2023-07-13T13:07:21;8.75;;;3.85;;
31782;SDS011;18351;47.560;9.708;2023-07-13T13:09:46;2.90;;;2.60;;
31782;SDS011;18351;47.560;9.708;2023-07-13T13:12:12;4.53;;;2.67;;
31782;SDS011;18351;47.560;9.708;2023-07-13T13:14:38;4.18;;;2.58;;
31782;SDS011;18351;47.560;9.708;2023-07-13T13:17:04;4.57;;;2.17;;
31782;SDS011;18351;47.560;9.708;2023-07-13T13:19:45;6.35;;;2.92;;
31782;SDS011;18351;47.560;9.708;2023-07-13T13:22:11;5.30;;;3.17;;
31782;SDS011;18351;47.560;9.708;2023-07-13T13:24:37;5.03;;;2.47;;
31782;SDS011;18351;47.560;9.708;2023-07-13T13:27:03;6.32;;;3.42;;
31782;SDS011;18351;47.560;9.708;2023-07-13T13:29:30;8.13;;;4.18;;
31782;SDS011;18351;47.560;9.708;2023-07-13T13:31:56;5.28;;;3.20;;
31782;SDS011;18351;47.560;9.708;2023-07-13T13:34:22;2.58;;;2.20;;
31782;SDS011;18351;47.560;9.708;2023-07-13T13:36:49;5.05;;;2.90;;
31782;SDS011;18351;47.560;9.708;2023-07-13T13:41:47;5.05;;;2.90;;
31782;SDS011;18351;47.560;9.708;2023-07-13T13:44:15;5.22;;;2.58;;
31782;SDS011;18351;47.560;9.708;2023-07-13T13:46:41;3.85;;;2.80;;
31782;SDS011;18351;47.560;9.708;2023-07-13T13:49:16;3.15;;;1.98;;
31782;SDS011;18351;47.560;9.708;2023-07-13T13:51:50;3.00;;;1.92;;
31782;SDS011;18351;47.560;9.708;2023-07-13T13:54:17;7.43;;;1.83;;
31782;SDS011;18351;47.560;9.708;2023-07-13T13:56:44;4.00;;;2.55;;
31782;SDS011;18351;47.560;9.708;2023-07-13T13:59:11;3.10;;;2.10;;
31782;SDS011;18351;47.560;9.708;2023-07-13T14:01:37;2.58;;;2.33;;
31782;SDS011;18351;47.560;9.708;2023-07-13T14:04:03;2.88;;;2.03;;
31782;SDS011;18351;47.560;9.708;2023-07-13T14:06:30;6.63;;;2.45;;
31782;SDS011;18351;47.560;9.708;2023-07-13T14:08:56;2.90;;;2.08;;
31782;SDS011;18351;47.560;9.708;2023-07-13T14:11:22;2.60;;;2.10;;
31782;SDS011;18351;47.560;9.708;2023-07-13T14:13:49;3.13;;;2.28;;
31782;SDS011;18351;47.560;9.708;2023-07-13T14:16:23;5.40;;;1.98;;
31782;SDS011;18351;47.560;9.708;2023-07-13T14:18:53;3.25;;;2.25;;
31782;SDS011;18351;47.560;9.708;2023-07-13T14:21:19;2.28;;;1.52;;
31782;SDS011;18351;47.560;9.708;2023-07-13T14:23:46;1.92;;;1.70;;
31782;SDS011;18351;47.560;9.708;2023-07-13T14:26:14;2.95;;;1.85;;
31782;SDS011;18351;47.560;9.708;2023-07-13T14:28:42;2.67;;;1.90;;
31782;SDS011;18351;47.560;9.708;2023-07-13T14:31:10;4.00;;;1.80;;
31782;SDS011;18351;47.560;9.708;2023-07-13T14:33:37;2.53;;;1.77;;
31782;SDS011;18351;47.560;9.708;2023-07-13T14:36:03;2.15;;;1.50;;
31782;SDS011;18351;47.560;9.708;2023-07-13T14:38:46;1.90;;;1.70;;
31782;SDS011;18351;47.560;9.708;2023-07-13T14:41:11;5.38;;;1.70;;
31782;SDS011;18351;47.560;9.708;2023-07-13T14:43:37;2.92;;;1.70;;
31782;SDS011;18351;47.560;9.708;2023-07-13T14:46:02;1.75;;;1.60;;
31782;SDS011;18351;47.560;9.708;2023-07-13T14:48:29;3.25;;;1.80;;
31782;SDS011;18351;47.560;9.708;2023-07-13T14:50:56;4.78;;;1.45;;
31782;SDS011;18351;47.560;9.708;2023-07-13T14:53:24;2.75;;;1.60;;
31782;SDS011;18351;47.560;9.708;2023-07-13T14:55:52;2.47;;;1.98;;
31782;SDS011;18351;47.560;9.708;2023-07-13T14:58:18;1.60;;;1.50;;
31782;SDS011;18351;47.560;9.708;2023-07-13T15:00:44;3.88;;;1.60;;
31782;SDS011;18351;47.560;9.708;2023-07-13T15:03:16;2.10;;;1.52;;
31782;SDS011;18351;47.560;9.708;2023-07-13T15:05:46;3.10;;;1.85;;
31782;SDS011;18351;47.560;9.708;2023-07-13T15:08:13;3.17;;;1.42;;
31782;SDS011;18351;47.560;9.708;2023-07-13T15:10:39;2.15;;;1.30;;
31782;SDS011;18351;47.560;9.708;2023-07-13T15:13:15;2.25;;;1.80;;
31782;SDS011;18351;47.560;9.708;2023-07-13T15:15:49;3.15;;;1.98;;
31782;SDS011;18351;47.560;9.708;2023-07-13T15:18:19;2.15;;;1.70;;
31782;SDS011;18351;47.560;9.708;2023-07-13T15:20:47;4.07;;;1.77;;
31782;SDS011;18351;47.560;9.708;2023-07-13T15:23:14;4.32;;;1.90;;
31782;SDS011;18351;47.560;9.708;2023-07-13T15:25:42;1.73;;;1.42;;
31782;SDS011;18351;47.560;9.708;2023-07-13T15:28:09;2.65;;;1.60;;
31782;SDS011;18351;47.560;9.708;2023-07-13T15:30:37;3.03;;;1.60;;
31782;SDS011;18351;47.560;9.708;2023-07-13T15:35:52;1.88;;;1.73;;
31782;SDS011;18351;47.560;9.708;2023-07-13T15:40:47;2.60;;;1.73;;
31782;SDS011;18351;47.560;9.708;2023-07-13T15:43:14;2.38;;;1.80;;
31782;SDS011;18351;47.560;9.708;2023-07-13T15:45:41;2.08;;;1.40;;
31782;SDS011;18351;47.560;9.708;2023-07-13T15:48:21;2.00;;;1.80;;